createdAt,value
2022-12-26T00:01:03.844Z,99313.66
2022-12-26T00:03:31.430Z,99307.19
2022-12-26T00:06:00.362Z,99309.88
2022-12-26T00:08:28.083Z,99310.94
2022-12-26T00:10:55.833Z,99316.03
2022-12-26T00:13:39.837Z,99285.31
2022-12-26T00:16:09.846Z,99313.22
2022-12-26T00:18:37.751Z,99312.00
2022-12-26T00:21:07.217Z,99289.41
2022-12-26T00:23:35.231Z,99314.53
2022-12-26T00:26:04.086Z,99318.75
2022-12-26T00:28:31.647Z,99314.63
2022-12-26T00:30:59.476Z,99318.16
2022-12-26T00:33:28.031Z,99330.84
2022-12-26T00:35:55.607Z,99335.94
2022-12-26T00:38:24.861Z,99320.28
2022-12-26T00:40:52.357Z,99349.16
2022-12-26T00:43:19.923Z,99344.22
2022-12-26T00:45:49.227Z,99309.34
2022-12-26T00:48:16.770Z,99361.88
2022-12-26T00:50:44.442Z,99353.78
2022-12-26T00:53:12.604Z,99356.81
2022-12-26T00:55:41.595Z,99347.72
2022-12-26T00:58:09.282Z,99351.28
2022-12-26T01:00:37.206Z,99342.31
2022-12-26T01:03:08.203Z,99341.91
2022-12-26T01:05:36.207Z,99357.28
2022-12-26T01:08:22.792Z,99346.97
2022-12-26T01:10:52.992Z,99330.13
2022-12-26T01:13:20.574Z,99351.97
2022-12-26T01:15:49.902Z,99340.28
2022-12-26T01:18:17.435Z,99318.25
2022-12-26T01:20:45.006Z,99323.88
2022-12-26T01:23:12.531Z,99342.56
2022-12-26T01:26:16.695Z,99353.66
2022-12-26T01:28:29.040Z,99350.28
2022-12-26T01:30:56.540Z,99367.53
2022-12-26T01:33:24.051Z,99357.56
2022-12-26T01:35:52.884Z,99365.25
2022-12-26T01:38:20.771Z,99362.06
2022-12-26T01:40:49.221Z,99361.81
2022-12-26T01:43:17.665Z,99367.00
2022-12-26T01:45:50.427Z,99382.13
2022-12-26T01:48:21.226Z,99377.28
2022-12-26T01:50:52.049Z,99383.59
2022-12-26T01:53:23.182Z,99382.22
2022-12-26T01:55:54.498Z,99379.63
2022-12-26T01:58:25.927Z,99367.84
2022-12-26T02:00:55.276Z,99394.59
2022-12-26T02:03:41.094Z,99383.94
2022-12-26T02:06:09.619Z,99383.97
2022-12-26T02:08:38.808Z,99387.84
2022-12-26T02:11:10.025Z,99382.97
2022-12-26T02:13:38.947Z,99388.22
2022-12-26T02:16:10.880Z,99368.34
2022-12-26T02:18:39.664Z,99398.78
2022-12-26T02:21:18.224Z,99373.59
2022-12-26T02:24:10.267Z,99391.44
2022-12-26T02:27:04.826Z,99369.22
2022-12-26T02:29:55.527Z,99360.44
2022-12-26T02:32:32.554Z,99354.91
2022-12-26T02:35:07.199Z,99370.72
2022-12-26T02:37:47.634Z,99375.88
2022-12-26T02:40:28.757Z,99365.09
2022-12-26T02:42:59.929Z,99369.53
2022-12-26T02:45:49.879Z,99378.94
2022-12-26T02:48:21.715Z,99385.09
2022-12-26T02:51:14.268Z,99395.69
2022-12-26T02:54:05.177Z,99391.91
2022-12-26T02:56:53.159Z,99397.16
2022-12-26T02:59:54.269Z,99393.44
2022-12-26T03:02:45.532Z,99384.72
2022-12-26T03:05:35.898Z,99384.72
2022-12-26T03:08:23.146Z,99390.28
2022-12-26T03:11:09.504Z,99378.09
2022-12-26T03:13:37.779Z,99400.94
2022-12-26T03:16:25.178Z,99378.59
2022-12-26T03:19:00.650Z,99394.81
2022-12-26T03:21:32.671Z,99370.94
2022-12-26T03:24:00.759Z,99394.91
2022-12-26T03:26:40.159Z,99387.22
2022-12-26T03:29:27.316Z,99381.00
2022-12-26T03:31:54.899Z,99391.56
2022-12-26T03:34:22.804Z,99382.06
2022-12-26T03:37:48.705Z,99383.72
2022-12-26T03:40:41.167Z,99383.72
2022-12-26T03:43:31.573Z,99394.09
2022-12-26T03:46:23.346Z,99398.16
2022-12-26T03:49:14.913Z,99416.22
2022-12-26T03:52:04.238Z,99412.78
2022-12-26T03:54:56.318Z,99408.28
2022-12-26T03:57:44.985Z,99398.38
2022-12-26T04:00:31.620Z,99401.56
2022-12-26T04:03:19.376Z,99396.13
2022-12-26T04:06:05.726Z,99394.59
2022-12-26T04:08:59.050Z,99385.44
2022-12-26T04:11:46.043Z,99391.91
2022-12-26T04:14:39.754Z,99396.06
2022-12-26T04:17:30.918Z,99403.41
2022-12-26T04:20:02.178Z,99422.94
2022-12-26T04:22:55.865Z,99426.72
2022-12-26T04:25:48.691Z,99425.31
2022-12-26T04:28:35.790Z,99417.25
2022-12-26T04:31:26.066Z,99411.31
2022-12-26T04:34:15.399Z,99411.00
2022-12-26T04:37:03.582Z,99414.34
2022-12-26T04:39:50.872Z,99400.59
2022-12-26T04:42:36.554Z,99400.50
2022-12-26T04:45:07.083Z,99411.50
2022-12-26T04:47:34.946Z,99405.19
2022-12-26T04:50:11.914Z,99407.72
2022-12-26T04:53:01.487Z,99417.91
2022-12-26T04:55:30.796Z,99418.19
2022-12-26T04:57:58.916Z,99417.00
2022-12-26T05:00:29.183Z,99420.13
2022-12-26T05:03:19.108Z,99411.13
2022-12-26T05:06:06.074Z,99432.00
2022-12-26T05:08:54.666Z,99445.19
2022-12-26T05:11:22.414Z,99452.38
2022-12-26T05:13:49.964Z,99450.81
2022-12-26T05:16:36.462Z,99455.94
2022-12-26T05:19:21.845Z,99458.22
2022-12-26T05:22:07.145Z,99456.03
2022-12-26T05:24:56.088Z,99460.25
2022-12-26T05:27:41.589Z,99443.66
2022-12-26T05:30:10.205Z,99471.06
2022-12-26T05:32:56.653Z,99477.66
2022-12-26T05:35:24.256Z,99474.09
2022-12-26T05:37:51.762Z,99452.38
2022-12-26T05:40:19.233Z,99479.66
2022-12-26T05:42:46.754Z,99473.06
2022-12-26T05:45:14.272Z,99472.44
2022-12-26T05:47:48.263Z,99448.16
2022-12-26T05:50:19.062Z,99471.59
2022-12-26T05:52:46.553Z,99459.69
2022-12-26T05:55:14.052Z,99471.13
2022-12-26T05:57:41.545Z,99478.00
2022-12-26T06:00:10.191Z,99481.59
2022-12-26T06:02:38.063Z,99450.16
2022-12-26T06:05:07.601Z,99484.78
2022-12-26T06:07:35.133Z,99489.00
2022-12-26T06:10:02.640Z,99487.72
2022-12-26T06:12:30.183Z,99492.03
2022-12-26T06:14:57.706Z,99478.56
2022-12-26T06:17:25.231Z,99505.22
2022-12-26T06:19:52.832Z,99511.97
2022-12-26T06:22:21.790Z,99509.06
2022-12-26T06:24:49.302Z,99498.06
2022-12-26T06:27:16.906Z,99512.66
2022-12-26T06:29:44.635Z,99514.63
2022-12-26T06:32:12.361Z,99513.19
2022-12-26T06:34:39.883Z,99500.09
2022-12-26T06:37:07.419Z,99500.63
2022-12-26T06:39:36.374Z,99492.03
2022-12-26T06:42:05.136Z,99478.00
2022-12-26T06:44:33.355Z,99495.97
2022-12-26T06:47:00.949Z,99498.53
2022-12-26T06:49:32.697Z,99491.09
2022-12-26T06:52:00.808Z,99476.19
2022-12-26T06:54:28.374Z,99483.91
2022-12-26T06:56:57.240Z,99492.69
2022-12-26T06:59:25.311Z,99484.06
2022-12-26T07:01:52.988Z,99481.41
2022-12-26T07:04:20.614Z,99455.03
2022-12-26T07:06:48.118Z,99494.69
2022-12-26T07:09:17.283Z,99469.47
2022-12-26T07:11:46.541Z,99468.75
2022-12-26T07:14:17.999Z,99479.38
2022-12-26T07:16:46.392Z,99499.25
2022-12-26T07:19:15.606Z,99515.41
2022-12-26T07:21:43.478Z,99499.00
2022-12-26T07:24:15.677Z,99511.63
2022-12-26T07:26:43.369Z,99521.84
2022-12-26T07:29:11.535Z,99528.69
2022-12-26T07:31:41.305Z,99525.34
2022-12-26T07:34:09.260Z,99531.03
2022-12-26T07:36:36.864Z,99531.69
2022-12-26T07:39:04.940Z,99547.63
2022-12-26T07:41:50.280Z,99516.38
2022-12-26T07:44:17.841Z,99536.28
2022-12-26T07:46:47.423Z,99534.34
2022-12-26T07:49:15.382Z,99527.13
2022-12-26T07:51:43.560Z,99525.06
2022-12-26T07:54:12.038Z,99546.28
2022-12-26T07:56:40.062Z,99547.66
2022-12-26T07:59:07.606Z,99546.31
2022-12-26T08:01:35.149Z,99547.22
2022-12-26T08:04:04.175Z,99543.56
2022-12-26T08:06:31.731Z,99532.38
2022-12-26T08:08:59.215Z,99524.41
2022-12-26T08:11:26.729Z,99508.59
2022-12-26T08:13:54.287Z,99532.00
2022-12-26T08:16:21.999Z,99532.81
2022-12-26T08:18:49.634Z,99557.03
2022-12-26T08:21:18.563Z,99546.06
2022-12-26T08:23:48.011Z,99561.63
2022-12-26T08:26:20.758Z,99513.53
2022-12-26T08:28:48.381Z,99520.63
2022-12-26T08:31:16.039Z,99555.00
2022-12-26T08:33:43.553Z,99548.13
2022-12-26T08:36:12.780Z,99550.63
2022-12-26T08:38:41.804Z,99543.38
2022-12-26T08:41:10.152Z,99558.22
2022-12-26T08:44:25.813Z,99552.44
2022-12-26T08:46:25.592Z,99544.16
2022-12-26T08:48:53.355Z,99570.69
2022-12-26T08:51:23.591Z,99558.59
2022-12-26T08:53:53.778Z,99567.16
2022-12-26T08:56:23.983Z,99556.69
2022-12-26T08:58:51.592Z,99557.28
2022-12-26T09:01:20.884Z,99562.06
2022-12-26T09:03:48.711Z,99543.34
2022-12-26T09:06:16.725Z,99555.91
2022-12-26T09:08:44.327Z,99552.53
2022-12-26T09:11:15.029Z,99559.50
2022-12-26T09:13:43.287Z,99551.97
2022-12-26T09:16:13.151Z,99555.09
2022-12-26T09:18:40.840Z,99576.81
2022-12-26T09:21:10.633Z,99580.78
2022-12-26T09:23:38.844Z,99580.03
2022-12-26T09:26:07.746Z,99573.16
2022-12-26T09:28:37.100Z,99581.63
2022-12-26T09:31:06.665Z,99567.25
2022-12-26T09:33:37.522Z,99570.53
2022-12-26T09:36:12.536Z,99568.63
2022-12-26T09:38:41.942Z,99577.69
2022-12-26T09:41:20.377Z,99566.63
2022-12-26T09:43:56.231Z,99567.78
2022-12-26T09:46:30.542Z,99561.41
2022-12-26T09:49:00.291Z,99576.84
2022-12-26T09:51:30.915Z,99582.78
2022-12-26T09:53:59.775Z,99576.16
2022-12-26T09:59:20.112Z,99561.34
2022-12-26T10:01:49.280Z,99567.19
2022-12-26T10:04:29.077Z,99575.00
2022-12-26T10:07:03.788Z,99574.69
2022-12-26T10:09:45.199Z,99563.69
2022-12-26T10:12:23.447Z,99554.00
2022-12-26T10:14:56.541Z,99569.84
2022-12-26T10:17:29.663Z,99570.31
2022-12-26T10:20:14.257Z,99565.88
2022-12-26T10:22:59.013Z,99552.03
2022-12-26T10:25:36.002Z,99567.38
2022-12-26T10:28:05.321Z,99566.06
2022-12-26T10:30:41.044Z,99560.63
2022-12-26T10:33:12.700Z,99556.41
2022-12-26T10:35:42.785Z,99562.22
2022-12-26T10:38:14.960Z,99569.38
2022-12-26T10:40:44.543Z,99541.72
2022-12-26T10:43:22.752Z,99564.78
2022-12-26T10:45:56.951Z,99576.22
2022-12-26T10:48:26.447Z,99577.66
2022-12-26T10:50:54.778Z,99553.91
2022-12-26T10:53:22.339Z,99583.84
2022-12-26T10:55:49.850Z,99538.91
2022-12-26T10:58:19.416Z,99554.81
2022-12-26T11:00:47.368Z,99585.19
2022-12-26T11:03:18.482Z,99578.19
2022-12-26T11:06:09.375Z,99575.63
2022-12-26T11:08:43.300Z,99571.72
2022-12-26T11:11:14.519Z,99561.72
2022-12-26T11:13:47.853Z,99573.78
2022-12-26T11:16:25.412Z,99568.44
2022-12-26T11:18:54.764Z,99576.38
2022-12-26T11:21:24.117Z,99561.41
2022-12-26T11:23:52.724Z,99563.13
2022-12-26T11:30:22.228Z,99574.22
2022-12-26T11:32:52.358Z,99572.06
2022-12-26T11:35:23.583Z,99569.69
2022-12-26T11:37:53.819Z,99566.28
2022-12-26T11:40:23.644Z,99572.81
2022-12-26T11:42:54.102Z,99570.53
2022-12-26T11:45:23.668Z,99555.31
2022-12-26T11:47:51.619Z,99560.81
2022-12-26T11:50:22.683Z,99537.50
2022-12-26T11:52:55.167Z,99539.13
2022-12-26T11:55:30.495Z,99526.03
2022-12-26T11:58:00.126Z,99544.44
2022-12-26T12:00:28.517Z,99532.22
2022-12-26T12:02:56.154Z,99542.28
2022-12-26T12:05:36.400Z,99557.81
2022-12-26T12:08:14.249Z,99551.97
2022-12-26T12:10:58.717Z,99544.06
2022-12-26T12:13:36.294Z,99554.53
2022-12-26T12:16:18.416Z,99555.56
2022-12-26T12:18:52.204Z,99528.41
2022-12-26T12:21:29.114Z,99533.75
2022-12-26T12:24:11.062Z,99533.34
2022-12-26T12:26:47.324Z,99535.47
2022-12-26T12:29:27.629Z,99499.47
2022-12-26T12:32:08.048Z,99534.88
2022-12-26T12:34:47.155Z,99541.28
2022-12-26T12:37:25.661Z,99541.56
2022-12-26T12:39:58.968Z,99529.41
2022-12-26T12:42:40.592Z,99542.22
2022-12-26T12:45:26.912Z,99537.56
2022-12-26T12:48:06.778Z,99544.63
2022-12-26T12:50:40.885Z,99547.72
2022-12-26T12:53:18.378Z,99540.31
2022-12-26T12:55:56.892Z,99541.59
2022-12-26T12:58:31.129Z,99539.78
2022-12-26T13:01:02.284Z,99544.38
2022-12-26T13:03:34.582Z,99548.22
2022-12-26T13:06:06.407Z,99539.78
2022-12-26T13:08:38.756Z,99556.84
2022-12-26T13:11:10.803Z,99550.16
2022-12-26T13:13:41.519Z,99548.56
2022-12-26T13:16:13.470Z,99549.06
2022-12-26T13:18:51.202Z,99533.56
2022-12-26T13:21:19.524Z,99548.69
2022-12-26T13:24:08.086Z,99529.44
2022-12-26T13:26:38.644Z,99537.84
2022-12-26T13:29:12.583Z,99544.69
2022-12-26T13:31:41.902Z,99542.50
2022-12-26T13:34:11.403Z,99553.22
2022-12-26T13:36:45.505Z,99585.94
2022-12-26T13:39:26.167Z,99568.09
2022-12-26T13:42:13.543Z,99586.09
2022-12-26T13:44:41.457Z,99608.88
2022-12-26T13:47:32.953Z,99613.56
2022-12-26T13:50:39.166Z,99622.03
2022-12-26T13:53:26.975Z,99612.94
2022-12-26T13:55:56.853Z,99630.66
2022-12-26T13:58:41.207Z,99630.66
2022-12-26T14:01:22.258Z,99613.34
2022-12-26T14:03:59.167Z,99650.84
2022-12-26T14:06:39.595Z,99655.97
2022-12-26T14:09:17.257Z,99634.81
2022-12-26T14:11:58.971Z,99671.03
2022-12-26T14:14:33.456Z,99667.56
2022-12-26T14:17:16.847Z,99683.22
2022-12-26T14:19:56.967Z,99689.72
2022-12-26T14:22:27.684Z,99689.00
2022-12-26T14:25:03.812Z,99702.72
2022-12-26T14:27:43.213Z,99711.78
2022-12-26T14:30:33.391Z,99719.16
2022-12-26T14:33:24.691Z,99726.63
2022-12-26T14:35:59.166Z,99729.25
2022-12-26T14:38:35.034Z,99733.38
2022-12-26T14:41:06.695Z,99709.25
2022-12-26T14:43:36.240Z,99747.94
2022-12-26T14:46:06.103Z,99729.84
2022-12-26T14:48:56.461Z,99761.88
2022-12-26T14:51:40.960Z,99769.97
2022-12-26T14:54:36.360Z,99793.22
2022-12-26T14:57:46.120Z,99778.34
2022-12-26T15:00:43.040Z,99787.72
2022-12-26T15:03:43.391Z,99790.78
2022-12-26T15:06:26.105Z,99796.81
2022-12-26T15:09:05.505Z,99762.38
2022-12-26T15:11:50.955Z,99791.72
2022-12-26T15:14:51.598Z,99800.06
2022-12-26T15:17:30.315Z,99799.56
2022-12-26T15:20:16.327Z,99806.56
2022-12-26T15:22:57.589Z,99813.13
2022-12-26T15:25:43.671Z,99784.69
2022-12-26T15:28:25.515Z,99808.31
2022-12-26T15:31:15.070Z,99811.22
2022-12-26T15:33:49.346Z,99806.72
2022-12-26T15:36:22.490Z,99821.03
2022-12-26T15:38:53.707Z,99836.13
2022-12-26T15:41:30.566Z,99841.19
2022-12-26T15:44:07.793Z,99842.69
2022-12-26T15:46:37.877Z,99857.63
2022-12-26T15:49:25.998Z,99856.81
2022-12-26T15:52:01.391Z,99855.44
2022-12-26T15:54:44.268Z,99865.16
2022-12-26T15:57:16.003Z,99862.22
2022-12-26T15:59:54.007Z,99862.91
2022-12-26T16:02:35.857Z,99858.84
2022-12-26T16:05:29.319Z,99857.34
2022-12-26T16:08:10.641Z,99872.56
2022-12-26T16:10:38.647Z,99874.22
2022-12-26T16:13:17.741Z,99875.59
2022-12-26T16:15:46.870Z,99883.28
2022-12-26T16:18:15.893Z,99895.66
2022-12-26T16:21:02.979Z,99890.53
2022-12-26T16:23:32.883Z,99895.06
2022-12-26T16:26:00.800Z,99904.88
2022-12-26T16:28:32.310Z,99903.97
2022-12-26T16:31:00.793Z,99909.03
2022-12-26T16:33:30.647Z,99910.09
2022-12-26T16:36:01.320Z,99898.69
2022-12-26T16:38:30.904Z,99917.34
2022-12-26T16:41:00.378Z,99916.88
2022-12-26T16:43:29.453Z,99911.09
2022-12-26T16:46:00.276Z,99927.38
2022-12-26T16:48:29.434Z,99903.00
2022-12-26T16:50:59.769Z,99916.97
2022-12-26T16:53:44.028Z,99923.38
2022-12-26T16:56:24.593Z,99920.53
2022-12-26T16:58:59.869Z,99923.66
2022-12-26T17:01:31.891Z,99928.13
2022-12-26T17:04:03.801Z,99932.69
2022-12-26T17:06:33.858Z,99930.06
2022-12-26T17:09:07.485Z,99923.66
2022-12-26T17:11:37.065Z,99942.19
2022-12-26T17:14:08.844Z,99940.59
2022-12-26T17:16:36.608Z,99941.31
2022-12-26T17:19:18.543Z,99949.03
2022-12-26T17:22:19.307Z,99952.25
2022-12-26T17:24:48.593Z,99949.38
2022-12-26T17:27:18.340Z,99959.59
2022-12-26T17:29:57.551Z,99960.63
2022-12-26T17:32:32.806Z,99966.13
2022-12-26T17:35:02.245Z,99963.88
2022-12-26T17:37:29.867Z,99966.25
2022-12-26T17:40:05.428Z,99967.09
2022-12-26T17:42:41.407Z,99977.81
2022-12-26T17:45:14.052Z,99970.44
2022-12-26T17:47:41.526Z,99958.25
2022-12-26T17:50:09.363Z,99941.88
2022-12-26T17:52:38.241Z,99967.88
2022-12-26T17:55:17.108Z,99975.72
2022-12-26T17:57:44.755Z,99984.13
2022-12-26T18:00:17.761Z,99994.09
2022-12-26T18:02:45.353Z,99985.34
2022-12-26T18:05:13.215Z,99978.47
2022-12-26T18:07:40.869Z,99980.53
2022-12-26T18:10:16.842Z,99989.69
2022-12-26T18:12:44.356Z,99991.66
2022-12-26T18:15:11.966Z,100010.56
2022-12-26T18:17:39.474Z,100016.72
2022-12-26T18:20:07.837Z,100018.53
2022-12-26T18:22:35.371Z,100029.38
2022-12-26T18:25:02.917Z,100030.22
2022-12-26T18:27:33.744Z,100036.59
2022-12-26T18:30:01.768Z,100035.59
2022-12-26T18:32:31.173Z,100041.03
2022-12-26T18:34:59.151Z,100042.84
2022-12-26T18:37:28.314Z,100050.19
2022-12-26T18:39:56.100Z,100040.63
2022-12-26T18:42:25.175Z,100062.53
2022-12-26T18:44:54.385Z,100064.22
2022-12-26T18:47:22.853Z,100057.53
2022-12-26T18:49:50.795Z,100061.00
2022-12-26T18:52:18.409Z,100068.09
2022-12-26T18:54:46.085Z,100072.50
2022-12-26T18:57:18.868Z,100071.69
2022-12-26T18:59:47.942Z,100082.50
2022-12-26T19:02:18.298Z,100085.84
2022-12-26T19:04:48.131Z,100085.94
2022-12-26T19:07:16.947Z,100092.31
2022-12-26T19:09:45.501Z,100094.56
2022-12-26T19:12:13.356Z,100101.28
2022-12-26T19:14:41.715Z,100097.75
2022-12-26T19:17:09.631Z,100108.56
2022-12-26T19:19:38.510Z,100076.50
2022-12-26T19:22:06.349Z,100114.91
2022-12-26T19:24:34.278Z,100123.09
2022-12-26T19:27:01.913Z,100106.34
2022-12-26T19:29:29.613Z,100127.41
2022-12-26T19:31:57.387Z,100138.22
2022-12-26T19:34:25.040Z,100114.16
2022-12-26T19:36:53.928Z,100137.19
2022-12-26T19:39:21.732Z,100145.13
2022-12-26T19:41:49.272Z,100149.00
2022-12-26T19:44:17.958Z,100149.09
2022-12-26T19:46:46.823Z,100154.38
2022-12-26T19:49:14.615Z,100163.25
2022-12-26T19:51:42.199Z,100160.75
2022-12-26T19:54:11.174Z,100174.34
2022-12-26T19:56:38.716Z,100150.97
2022-12-26T19:59:06.215Z,100147.63
2022-12-26T20:01:33.886Z,100179.97
2022-12-26T20:04:03.711Z,100193.19
2022-12-26T20:06:32.655Z,100165.91
2022-12-26T20:09:01.652Z,100209.75
2022-12-26T20:11:33.386Z,100211.63
2022-12-26T20:14:01.477Z,100215.50
2022-12-26T20:17:03.722Z,100217.88
2022-12-26T20:19:17.096Z,100220.16
2022-12-26T20:21:44.776Z,100221.19
2022-12-26T20:24:13.582Z,100224.06
2022-12-26T20:26:42.866Z,100227.03
2022-12-26T20:29:13.191Z,100236.00
2022-12-26T20:31:42.433Z,100238.53
2022-12-26T20:34:10.982Z,100246.28
2022-12-26T20:36:39.711Z,100248.53
2022-12-26T20:39:09.432Z,100244.34
2022-12-26T20:41:36.992Z,100233.97
2022-12-26T20:44:06.396Z,100249.00
2022-12-26T20:46:34.949Z,100254.97
2022-12-26T20:49:04.610Z,100251.41
2022-12-26T20:51:37.703Z,100256.28
2022-12-26T20:54:06.754Z,100259.66
2022-12-26T20:56:34.410Z,100268.00
2022-12-26T20:59:01.963Z,100275.91
2022-12-26T21:01:31.478Z,100276.88
2022-12-26T21:03:59.178Z,100252.66
2022-12-26T21:06:29.155Z,100282.22
2022-12-26T21:08:57.647Z,100247.59
2022-12-26T21:11:27.402Z,100285.25
2022-12-26T21:13:57.516Z,100243.56
2022-12-26T21:16:27.481Z,100260.72
2022-12-26T21:18:57.211Z,100291.53
2022-12-26T21:21:27.058Z,100252.38
2022-12-26T21:23:57.038Z,100284.28
2022-12-26T21:26:24.841Z,100271.13
2022-12-26T21:28:56.425Z,100295.00
2022-12-26T21:31:23.956Z,100289.28
2022-12-26T21:33:52.080Z,100304.22
2022-12-26T21:36:21.006Z,100307.06
2022-12-26T21:38:49.194Z,100315.66
2022-12-26T21:41:16.858Z,100319.22
2022-12-26T21:43:45.088Z,100314.59
2022-12-26T21:46:16.074Z,100324.28
2022-12-26T21:48:46.876Z,100328.13
2022-12-26T21:51:15.122Z,100353.78
2022-12-26T21:53:44.323Z,100357.84
2022-12-26T21:56:12.531Z,100360.00
2022-12-26T21:58:54.403Z,100367.50
2022-12-26T22:01:23.515Z,100365.72
2022-12-26T22:04:09.000Z,100359.63
2022-12-26T22:06:37.366Z,100339.56
2022-12-26T22:09:07.056Z,100309.47
2022-12-26T22:11:52.129Z,100349.81
2022-12-26T22:14:19.830Z,100346.47
2022-12-26T22:16:47.467Z,100343.13
2022-12-26T22:19:14.976Z,100342.50
2022-12-26T22:21:42.534Z,100344.69
2022-12-26T22:24:12.426Z,100351.63
2022-12-26T22:26:39.946Z,100349.97
2022-12-26T22:29:07.458Z,100356.03
2022-12-26T22:31:36.869Z,100361.53
2022-12-26T22:34:07.333Z,100368.69
2022-12-26T22:36:36.556Z,100373.72
2022-12-26T22:39:05.013Z,100366.94
2022-12-26T22:41:35.476Z,100370.16
2022-12-26T22:44:02.985Z,100372.75
2022-12-26T22:46:30.591Z,100368.94
2022-12-26T22:48:58.177Z,100378.81
2022-12-26T22:51:26.720Z,100383.53
2022-12-26T22:53:54.665Z,100370.88
2022-12-26T22:56:22.287Z,100380.38
2022-12-26T22:58:54.877Z,100362.66
2022-12-26T23:01:23.643Z,100388.09
2022-12-26T23:03:51.307Z,100382.00
2022-12-26T23:06:20.525Z,100379.28
2022-12-26T23:08:48.639Z,100388.09
2022-12-26T23:11:16.531Z,100390.25
2022-12-26T23:13:45.634Z,100398.09
2022-12-26T23:16:22.115Z,100392.00
2022-12-26T23:19:10.497Z,100386.50
2022-12-26T23:21:40.131Z,100393.56
2022-12-26T23:24:09.699Z,100389.47
2022-12-26T23:26:37.206Z,100398.44
2022-12-26T23:29:22.493Z,100397.84
2022-12-26T23:31:51.413Z,100403.19
2022-12-26T23:34:18.977Z,100397.34
2022-12-26T23:36:46.430Z,100401.81
2022-12-26T23:39:14.003Z,100404.97
2022-12-26T23:41:41.525Z,100401.44
2022-12-26T23:44:09.396Z,100398.78
2022-12-26T23:46:37.063Z,100395.44
2022-12-26T23:49:05.914Z,100405.00
2022-12-26T23:51:33.384Z,100400.81
2022-12-26T23:54:00.964Z,100402.72
2022-12-26T23:56:28.490Z,100402.09
2022-12-26T23:58:56.279Z,100391.16
